Terminal Aerodrome Forecast
Issued by NWS

Current Version | Previous Version | Graphics & Text | Print | Product List | Glossary On
Versions: 1 2 3 4 5 6 7 8 9 10 11 12 13 14 15 16 17 18 19 20 21 22 23 24 25
000
FTUS41 KRLX 191700 RRA
TAFCKB
TAF
KCKB 191744Z 1918/2018 11004KT P6SM SCT040
     FM200200 15002KT P6SM FEW045
     FM200800 00000KT 6SM BR SCT050
     FM201500 18006KT P6SM SCT040=

USA.gov is the U.S. government's official web portal to all federal, state and local government web resources and services.